Time;durP1;ratioP1;P1;durP2;ratioP2;P2;SDS_P1;SDS_P2;PMS_P1;PMS_P2;Temp;Humidity;BMP_temperature;BMP_pressure;BME280_temperature;BME280_humidity;BME280_pressure;Samples;Min_cycle;Max_cycle;Signal;HPM_P1;HPM_P2
2021/01/21 00:00:00;;;;;;;7.25;3.30;;;5.30;99.90;;;;;;5086106;28;20065;-75
2021/01/21 00:02:28;;;;;;;7.53;3.75;;;5.30;99.90;;;;;;5060465;28;20034;-75
2021/01/21 00:04:54;;;;;;;6.15;3.10;;;5.30;99.90;;;;;;5037601;28;20036;-75
2021/01/21 00:07:19;;;;;;;5.65;3.10;;;5.30;99.90;;;;;;5078084;28;20480;-75
2021/01/21 00:09:50;;;;;;;5.82;3.42;;;5.30;99.90;;;;;;5077842;28;20033;-75
2021/01/21 00:12:16;;;;;;;7.28;3.20;;;5.30;99.90;;;;;;5071024;28;20043;-76
2021/01/21 00:14:44;;;;;;;7.47;3.67;;;5.30;99.90;;;;;;5076819;28;20024;-76
2021/01/21 00:17:12;;;;;;;6.97;3.25;;;5.30;99.90;;;;;;5077132;28;20110;-75
2021/01/21 00:19:38;;;;;;;5.95;3.30;;;5.30;99.90;;;;;;5066760;28;20094;-75
2021/01/21 00:22:06;;;;;;;5.85;3.40;;;5.20;99.90;;;;;;5075787;28;20648;-75
2021/01/21 00:24:31;;;;;;;6.43;3.35;;;5.20;99.90;;;;;;5075352;28;20491;-76
2021/01/21 00:26:57;;;;;;;6.88;3.85;;;5.20;99.90;;;;;;5080055;28;20040;-75
2021/01/21 00:29:27;;;;;;;7.90;3.20;;;5.20;99.90;;;;;;5092176;28;20047;-76
2021/01/21 00:31:58;;;;;;;6.22;3.38;;;5.20;99.90;;;;;;5087408;28;20385;-75
2021/01/21 00:34:25;;;;;;;6.10;3.20;;;5.20;99.90;;;;;;5072041;28;20048;-75
2021/01/21 00:36:51;;;;;;;7.25;3.60;;;5.20;99.90;;;;;;5075942;28;20100;-76
2021/01/21 00:39:19;;;;;;;6.35;3.40;;;5.20;99.90;;;;;;5078499;28;20043;-75
2021/01/21 00:41:45;;;;;;;6.68;3.50;;;5.10;99.90;;;;;;5073668;28;20028;-76
2021/01/21 00:44:11;;;;;;;6.65;3.45;;;5.00;99.90;;;;;;5085678;28;20044;-75
2021/01/21 00:46:36;;;;;;;5.68;3.08;;;5.10;99.90;;;;;;5092534;28;20020;-76
2021/01/21 00:49:02;;;;;;;6.40;3.38;;;5.10;99.90;;;;;;5091135;28;20161;-75
2021/01/21 00:51:28;;;;;;;6.63;3.70;;;5.00;99.90;;;;;;5083984;28;20024;-75
2021/01/21 00:53:53;;;;;;;7.40;3.67;;;5.00;99.90;;;;;;5063026;28;20024;-75
2021/01/21 00:56:22;;;;;;;7.85;4.15;;;5.00;99.90;;;;;;5078909;28;20039;-75
2021/01/21 00:58:49;;;;;;;8.70;4.50;;;5.00;99.90;;;;;;5076528;28;20055;-75
2021/01/21 01:01:15;;;;;;;7.93;4.00;;;5.00;99.90;;;;;;5078388;28;20028;-75
2021/01/21 01:03:41;;;;;;;8.80;4.40;;;5.00;99.90;;;;;;5091989;28;20023;-76
2021/01/21 01:06:11;;;;;;;8.07;3.85;;;5.10;99.90;;;;;;5085906;28;20099;-76
2021/01/21 01:08:37;;;;;;;6.38;3.67;;;5.10;99.90;;;;;;5074954;28;20032;-75
2021/01/21 01:11:05;;;;;;;6.78;3.67;;;5.10;99.90;;;;;;5075105;28;20103;-76
2021/01/21 01:13:37;;;;;;;7.50;4.07;;;5.10;99.90;;;;;;5074676;28;20056;-75
2021/01/21 01:16:04;;;;;;;6.90;3.60;;;5.10;99.90;;;;;;5074998;28;20040;-75
2021/01/21 01:18:32;;;;;;;8.20;4.03;;;5.00;99.90;;;;;;5075220;28;20031;-75
2021/01/21 01:21:00;;;;;;;7.20;4.00;;;5.10;99.90;;;;;;5077274;28;20457;-75
2021/01/21 01:23:30;;;;;;;7.57;4.28;;;5.10;99.90;;;;;;5075843;28;20047;-75
2021/01/21 01:25:58;;;;;;;8.10;4.30;;;5.10;99.90;;;;;;5076155;28;20036;-75
2021/01/21 01:28:26;;;;;;;7.80;4.40;;;5.10;99.90;;;;;;5076147;28;20476;-75
2021/01/21 01:30:56;;;;;;;8.10;4.10;;;5.10;99.90;;;;;;5074292;28;20089;-75
2021/01/21 01:33:24;;;;;;;7.57;4.07;;;5.10;99.90;;;;;;5077720;28;20100;-76
2021/01/21 01:35:50;;;;;;;7.68;4.20;;;5.20;99.90;;;;;;5060022;28;20048;-75
2021/01/21 01:38:15;;;;;;;7.28;4.38;;;5.20;99.90;;;;;;5083396;28;20059;-75
2021/01/21 01:40:41;;;;;;;7.05;3.97;;;5.30;99.90;;;;;;5074922;28;20097;-76
2021/01/21 01:43:07;;;;;;;6.93;3.80;;;5.30;99.90;;;;;;5084763;28;20028;-76
2021/01/21 01:45:37;;;;;;;7.10;3.80;;;5.30;99.90;;;;;;5087552;28;20036;-75
2021/01/21 01:48:03;;;;;;;6.80;3.58;;;5.40;99.90;;;;;;5075150;28;20047;-76
2021/01/21 01:50:32;;;;;;;7.93;4.05;;;5.40;99.90;;;;;;5061246;28;20366;-76
2021/01/21 01:52:59;;;;;;;6.45;3.90;;;5.50;99.90;;;;;;5064339;28;20496;-75
2021/01/21 01:55:28;;;;;;;5.75;3.55;;;5.50;99.90;;;;;;5088278;28;20102;-75
2021/01/21 01:57:56;;;;;;;7.40;4.10;;;5.50;99.90;;;;;;5086675;28;20105;-76
2021/01/21 02:00:24;;;;;;;7.28;3.80;;;5.50;99.90;;;;;;5076813;28;20032;-75
2021/01/21 02:02:50;;;;;;;7.38;3.47;;;5.50;99.90;;;;;;5072389;28;20031;-75
2021/01/21 02:05:17;;;;;;;8.35;3.85;;;5.50;99.90;;;;;;5089395;28;20036;-76
2021/01/21 02:07:45;;;;;;;7.22;3.95;;;5.40;99.90;;;;;;5087666;28;20039;-76
2021/01/21 02:10:12;;;;;;;6.47;3.40;;;5.40;99.90;;;;;;5092777;28;20020;-76
2021/01/21 02:12:50;;;;;;;5.70;3.70;;;5.40;99.90;;;;;;5086292;28;20027;-76
2021/01/21 02:15:48;;;;;;;7.38;3.80;;;5.40;99.90;;;;;;5088854;28;20051;-75
2021/01/21 02:18:38;;;;;;;5.82;3.50;;;5.50;99.90;;;;;;5086930;28;20049;-76
2021/01/21 02:21:25;;;;;;;5.70;3.50;;;5.50;99.90;;;;;;5077151;28;20687;-76
2021/01/21 02:24:10;;;;;;;6.20;3.50;;;5.50;99.90;;;;;;5081186;28;20043;-75
2021/01/21 02:26:54;;;;;;;7.40;3.45;;;5.60;99.90;;;;;;5072421;28;20535;-75
2021/01/21 02:29:41;;;;;;;5.82;3.40;;;5.60;99.90;;;;;;5059311;28;20031;-76
2021/01/21 02:32:12;;;;;;;5.97;3.63;;;5.70;99.90;;;;;;5073352;28;20043;-75
2021/01/21 02:34:56;;;;;;;7.72;3.55;;;5.60;99.90;;;;;;5076900;28;20123;-76
2021/01/21 02:37:29;;;;;;;6.55;3.20;;;5.60;99.90;;;;;;5075067;28;20039;-75
2021/01/21 02:40:01;;;;;;;7.43;3.58;;;5.70;99.90;;;;;;5063768;28;20080;-76
2021/01/21 02:42:30;;;;;;;6.38;3.50;;;5.60;99.90;;;;;;5070102;28;20035;-76
2021/01/21 02:45:00;;;;;;;6.82;3.50;;;5.60;99.90;;;;;;5087047;28;20480;-76
2021/01/21 02:47:26;;;;;;;6.63;3.17;;;5.60;99.90;;;;;;5071497;28;20123;-75
2021/01/21 02:49:54;;;;;;;6.72;3.50;;;5.60;99.90;;;;;;5065977;28;20118;-76
2021/01/21 02:52:31;;;;;;;5.85;3.40;;;5.60;99.90;;;;;;5071823;28;20028;-76
2021/01/21 02:55:29;;;;;;;5.68;3.10;;;5.50;99.90;;;;;;5055023;28;20031;-76
2021/01/21 02:58:16;;;;;;;7.32;3.28;;;5.50;99.90;;;;;;5073564;28;20031;-76
2021/01/21 03:00:41;;;;;;;5.20;2.97;;;5.50;99.90;;;;;;5088704;28;20032;-76
2021/01/21 03:03:27;;;;;;;5.95;2.97;;;5.40;99.90;;;;;;5086548;28;20064;-76
2021/01/21 03:05:58;;;;;;;5.82;3.10;;;5.50;99.90;;;;;;5079248;28;20039;-76
2021/01/21 03:08:26;;;;;;;6.32;3.42;;;5.50;99.90;;;;;;5061022;28;20055;-76
2021/01/21 03:10:53;;;;;;;5.38;2.90;;;5.50;99.90;;;;;;5055771;28;20246;-76
2021/01/21 03:13:22;;;;;;;5.80;2.90;;;5.50;99.90;;;;;;5068604;28;20043;-76
2021/01/21 03:15:47;;;;;;;5.50;2.80;;;5.50;99.90;;;;;;5056494;28;20444;-76
2021/01/21 03:18:13;;;;;;;6.05;2.90;;;5.50;99.90;;;;;;5073892;28;20115;-75
2021/01/21 03:20:41;;;;;;;6.70;3.05;;;5.50;99.90;;;;;;5073403;28;20571;-75
2021/01/21 03:23:06;;;;;;;7.07;2.80;;;5.60;99.90;;;;;;5073942;28;20043;-76
2021/01/21 03:25:32;;;;;;;5.90;2.78;;;5.60;99.90;;;;;;5075580;28;20032;-76
2021/01/21 03:28:00;;;;;;;5.53;3.05;;;5.60;99.90;;;;;;5079932;28;20484;-76
2021/01/21 03:30:27;;;;;;;5.88;2.90;;;5.60;99.90;;;;;;5075739;28;20057;-76
2021/01/21 03:32:59;;;;;;;5.95;3.10;;;5.70;99.90;;;;;;5078364;28;20045;-75
2021/01/21 03:35:26;;;;;;;5.25;2.60;;;5.70;99.90;;;;;;5077819;28;20433;-76
2021/01/21 03:37:53;;;;;;;6.63;3.25;;;5.70;99.90;;;;;;5077109;28;20043;-76
2021/01/21 03:40:18;;;;;;;4.72;2.53;;;5.70;99.90;;;;;;5078055;28;20074;-76
2021/01/21 03:42:46;;;;;;;5.85;2.95;;;5.70;99.90;;;;;;5077238;28;20027;-76
2021/01/21 03:45:12;;;;;;;6.00;2.85;;;5.70;99.90;;;;;;5079966;28;20045;-76
2021/01/21 03:47:41;;;;;;;5.35;3.13;;;5.70;99.90;;;;;;5078017;28;20116;-76
2021/01/21 03:50:09;;;;;;;5.55;2.83;;;5.70;99.90;;;;;;5076364;28;20053;-76
2021/01/21 03:52:35;;;;;;;6.18;3.10;;;5.60;99.90;;;;;;5077091;28;20031;-76
2021/01/21 03:55:05;;;;;;;6.90;2.65;;;5.60;99.90;;;;;;5075621;28;20032;-76
2021/01/21 03:57:31;;;;;;;6.68;3.03;;;5.70;99.90;;;;;;5077876;28;20032;-76
2021/01/21 03:59:57;;;;;;;5.15;2.80;;;5.60;99.90;;;;;;5078210;28;20093;-76
2021/01/21 04:02:25;;;;;;;5.95;3.00;;;5.70;99.90;;;;;;5093394;27;20032;-76
2021/01/21 04:04:50;;;;;;;5.03;2.80;;;5.70;99.90;;;;;;5077615;28;20492;-76
2021/01/21 04:07:16;;;;;;;6.15;2.80;;;5.80;99.90;;;;;;5085067;28;20031;-76
2021/01/21 04:09:42;;;;;;;6.53;2.90;;;5.80;99.90;;;;;;5077162;28;20469;-76
2021/01/21 04:12:07;;;;;;;6.25;2.97;;;5.90;99.90;;;;;;5076296;28;20039;-76
2021/01/21 04:14:35;;;;;;;5.97;2.58;;;5.90;99.90;;;;;;5076920;28;20047;-76
2021/01/21 04:17:08;;;;;;;7.50;3.22;;;5.90;99.90;;;;;;5075815;28;20033;-76
2021/01/21 04:19:38;;;;;;;6.13;2.80;;;6.00;99.90;;;;;;5082505;28;20035;-76
2021/01/21 04:22:06;;;;;;;5.80;2.70;;;6.00;99.90;;;;;;5077428;28;20115;-76
2021/01/21 04:24:34;;;;;;;6.20;2.97;;;6.10;99.90;;;;;;5060944;28;20032;-76
2021/01/21 04:27:02;;;;;;;6.97;3.25;;;6.10;99.90;;;;;;5063216;28;20035;-77
2021/01/21 04:29:27;;;;;;;5.88;2.78;;;6.20;99.90;;;;;;5077572;28;20151;-76
2021/01/21 04:31:55;;;;;;;6.18;2.92;;;6.20;99.90;;;;;;5075641;28;20044;-76
2021/01/21 04:34:23;;;;;;;4.90;2.70;;;6.30;99.90;;;;;;5073909;28;20085;-76
2021/01/21 04:36:53;;;;;;;5.60;2.80;;;6.30;99.90;;;;;;5072398;28;20347;-76
2021/01/21 04:39:21;;;;;;;5.10;2.60;;;6.40;99.80;;;;;;5076014;28;20032;-76
2021/01/21 04:41:49;;;;;;;8.18;3.00;;;6.40;99.90;;;;;;5075255;28;20031;-76
2021/01/21 04:44:15;;;;;;;5.93;2.88;;;6.50;99.90;;;;;;5075184;28;20089;-76
2021/01/21 04:46:45;;;;;;;5.13;3.08;;;6.50;99.90;;;;;;5075076;28;20024;-76
2021/01/21 04:49:11;;;;;;;5.45;3.00;;;6.50;99.90;;;;;;5077082;28;20035;-76
2021/01/21 04:51:42;;;;;;;7.20;2.85;;;6.50;99.90;;;;;;5074295;28;20024;-76
2021/01/21 04:54:08;;;;;;;5.47;2.90;;;6.50;99.90;;;;;;5059088;28;20449;-76
2021/01/21 04:56:47;;;;;;;5.90;2.80;;;6.60;99.90;;;;;;5052053;28;20032;-76
2021/01/21 04:59:16;;;;;;;6.30;2.58;;;6.60;99.90;;;;;;5060978;28;20047;-76
2021/01/21 05:01:44;;;;;;;4.90;3.00;;;6.70;99.90;;;;;;5070123;28;20024;-76
2021/01/21 05:04:11;;;;;;;7.40;2.92;;;6.70;99.90;;;;;;5075068;28;20119;-76
2021/01/21 05:06:39;;;;;;;4.85;2.70;;;6.70;99.90;;;;;;5058495;28;20028;-76
2021/01/21 05:09:04;;;;;;;4.70;2.60;;;6.80;99.30;;;;;;5074484;28;20028;-76
2021/01/21 05:11:33;;;;;;;6.43;2.90;;;6.80;97.90;;;;;;5074108;28;20027;-76
2021/01/21 05:13:58;;;;;;;6.80;2.60;;;6.80;97.80;;;;;;5073955;28;20116;-76
2021/01/21 05:16:29;;;;;;;6.00;2.55;;;6.90;99.20;;;;;;5061298;28;20028;-76
2021/01/21 05:19:04;;;;;;;5.38;2.70;;;6.90;99.40;;;;;;5058058;28;20522;-76
2021/01/21 05:21:33;;;;;;;5.90;2.95;;;6.90;98.10;;;;;;5058595;28;20042;-76
2021/01/21 05:23:58;;;;;;;5.93;2.60;;;6.90;98.30;;;;;;5050714;28;20040;-76
2021/01/21 05:26:29;;;;;;;5.43;2.70;;;7.00;98.80;;;;;;5061577;28;20595;-76
2021/01/21 05:28:55;;;;;;;4.72;2.60;;;7.00;99.10;;;;;;5057951;28;20035;-76
2021/01/21 05:31:23;;;;;;;4.90;2.47;;;7.00;99.90;;;;;;5017907;28;673144;-75
2021/01/21 05:33:51;;;;;;;5.13;3.13;;;7.00;99.90;;;;;;5074018;28;20036;-76
2021/01/21 05:36:17;;;;;;;6.28;2.78;;;7.00;99.80;;;;;;5077111;28;20366;-76
2021/01/21 05:39:06;;;;;;;6.70;2.95;;;7.00;99.90;;;;;;5057787;28;20043;-77
2021/01/21 05:41:41;;;;;;;4.93;2.67;;;6.90;98.10;;;;;;5074609;28;20040;-76
2021/01/21 05:44:07;;;;;;;4.85;2.40;;;6.90;98.90;;;;;;5076202;28;20028;-77
2021/01/21 05:46:35;;;;;;;5.72;2.80;;;6.90;99.90;;;;;;5085308;28;20031;-76
2021/01/21 05:49:04;;;;;;;5.07;2.70;;;6.90;99.90;;;;;;5075746;28;20040;-76
2021/01/21 05:51:30;;;;;;;5.93;2.80;;;6.90;99.40;;;;;;5074283;28;20020;-76
2021/01/21 05:53:56;;;;;;;7.18;2.90;;;6.90;99.90;;;;;;5075173;28;20060;-76
2021/01/21 05:56:26;;;;;;;5.95;2.70;;;6.90;99.90;;;;;;5077557;28;20028;-76
2021/01/21 05:58:53;;;;;;;5.82;2.60;;;6.90;99.90;;;;;;5072605;28;20080;-76
2021/01/21 06:01:23;;;;;;;5.10;2.60;;;6.90;99.90;;;;;;5075185;28;20477;-76
2021/01/21 06:03:48;;;;;;;4.80;2.35;;;6.90;99.90;;;;;;5086568;28;20112;-76
2021/01/21 06:06:16;;;;;;;5.30;2.60;;;6.90;99.90;;;;;;5076896;28;20037;-76
2021/01/21 06:08:43;;;;;;;4.40;2.30;;;6.90;99.90;;;;;;5074152;28;20028;-76
2021/01/21 06:11:09;;;;;;;7.03;2.67;;;6.90;99.90;;;;;;5076146;28;20023;-76
2021/01/21 06:13:41;;;;;;;4.88;2.58;;;6.90;99.90;;;;;;5074682;28;20115;-76
2021/01/21 06:16:10;;;;;;;5.75;2.60;;;6.90;99.90;;;;;;5065150;28;20032;-77
2021/01/21 06:18:36;;;;;;;4.90;2.42;;;6.90;99.90;;;;;;5069617;28;20039;-76
2021/01/21 06:21:04;;;;;;;5.50;2.60;;;6.90;99.90;;;;;;5072884;28;20039;-77
2021/01/21 06:23:33;;;;;;;5.60;2.60;;;6.90;99.90;;;;;;5073589;28;20477;-76
2021/01/21 06:26:03;;;;;;;5.15;2.90;;;6.90;99.90;;;;;;5073403;28;20027;-76
2021/01/21 06:28:31;;;;;;;6.85;2.60;;;6.80;99.90;;;;;;5072208;28;20151;-76
2021/01/21 06:30:57;;;;;;;4.82;2.33;;;6.90;99.90;;;;;;5073461;28;20032;-76
2021/01/21 06:33:26;;;;;;;5.90;2.40;;;6.90;99.90;;;;;;5073080;28;20079;-76
2021/01/21 06:36:04;;;;;;;4.43;2.38;;;6.90;99.90;;;;;;5074764;28;20231;-76
2021/01/21 06:38:37;;;;;;;4.70;2.40;;;6.90;99.90;;;;;;5060957;28;20650;-76
2021/01/21 06:41:03;;;;;;;4.72;2.50;;;7.00;99.90;;;;;;5056763;28;20123;-76
2021/01/21 06:43:31;;;;;;;5.55;2.50;;;7.00;99.90;;;;;;5070932;28;20411;-76
2021/01/21 06:46:02;;;;;;;5.75;2.72;;;7.00;99.90;;;;;;5074468;28;20032;-76
2021/01/21 06:48:28;;;;;;;5.07;2.58;;;7.10;99.90;;;;;;5077067;28;20021;-77
2021/01/21 06:50:54;;;;;;;7.13;3.38;;;7.10;99.90;;;;;;5064839;28;20571;-76
2021/01/21 06:53:21;;;;;;;5.95;2.67;;;7.10;99.90;;;;;;5072548;28;20020;-76
2021/01/21 06:55:53;;;;;;;5.03;2.33;;;7.10;99.90;;;;;;5072569;28;20139;-76
2021/01/21 06:58:53;;;;;;;6.05;2.67;;;7.10;99.90;;;;;;5075040;28;20537;-76
2021/01/21 07:01:33;;;;;;;5.70;2.63;;;7.20;99.90;;;;;;5073744;28;20032;-76
2021/01/21 07:04:04;;;;;;;5.85;2.50;;;7.20;99.90;;;;;;5074406;28;20039;-76
2021/01/21 07:06:49;;;;;;;3.47;1.92;;;7.20;99.90;;;;;;5077875;28;20028;-78
2021/01/21 07:09:16;;;;;;;5.10;2.30;;;7.20;99.90;;;;;;5086385;28;20048;-76
2021/01/21 07:11:41;;;;;;;4.93;2.53;;;7.20;99.90;;;;;;5067251;28;20309;-76
2021/01/21 07:14:10;;;;;;;4.93;2.72;;;7.20;99.90;;;;;;5068968;28;20032;-76
2021/01/21 07:16:35;;;;;;;4.78;2.50;;;7.20;99.90;;;;;;5076130;28;20118;-76
2021/01/21 07:19:02;;;;;;;4.30;2.33;;;7.20;99.90;;;;;;5085834;28;20162;-76
2021/01/21 07:21:30;;;;;;;6.60;2.50;;;7.20;99.90;;;;;;5085002;28;20035;-76
2021/01/21 07:23:58;;;;;;;5.47;2.60;;;7.20;99.90;;;;;;5084357;28;20036;-76
2021/01/21 07:26:30;;;;;;;6.00;2.72;;;7.20;99.90;;;;;;5071581;28;20065;-76
2021/01/21 07:28:58;;;;;;;5.20;2.45;;;7.20;99.90;;;;;;5084200;28;20040;-76
2021/01/21 07:31:27;;;;;;;5.38;2.40;;;7.20;99.90;;;;;;5087428;28;20493;-74
2021/01/21 07:34:21;;;;;;;7.97;2.60;;;7.30;99.90;;;;;;5089022;28;20165;-76
2021/01/21 07:37:15;;;;;;;5.55;2.60;;;7.30;99.90;;;;;;5082494;28;20021;-76
2021/01/21 07:39:57;;;;;;;6.85;3.92;;;7.30;99.90;;;;;;5055804;28;20038;-76
2021/01/21 07:42:49;;;;;;;5.63;2.65;;;7.30;99.90;;;;;;5070980;28;20338;-75
2021/01/21 07:45:20;;;;;;;5.75;2.97;;;7.40;99.90;;;;;;5080277;28;20139;-73
2021/01/21 07:47:47;;;;;;;4.10;2.30;;;7.30;99.90;;;;;;5085575;28;20024;-73
2021/01/21 07:50:19;;;;;;;5.07;2.50;;;7.40;99.90;;;;;;5086809;28;20660;-77
2021/01/21 07:52:45;;;;;;;3.75;2.28;;;7.50;99.90;;;;;;5085768;28;20028;-76
2021/01/21 07:55:11;;;;;;;5.72;2.30;;;7.50;99.90;;;;;;5066710;28;20040;-76
2021/01/21 07:57:37;;;;;;;4.95;2.30;;;7.50;99.90;;;;;;5085876;28;20107;-76
2021/01/21 08:00:15;;;;;;;5.68;2.40;;;7.50;99.90;;;;;;5089350;28;20033;-76
2021/01/21 08:02:44;;;;;;;5.10;2.53;;;7.50;99.90;;;;;;5086282;28;20031;-76
2021/01/21 08:05:15;;;;;;;4.45;2.30;;;7.50;99.90;;;;;;5086078;28;20071;-75
2021/01/21 08:07:52;;;;;;;7.40;2.50;;;7.50;99.90;;;;;;5074529;28;20036;-76
2021/01/21 08:10:24;;;;;;;7.07;2.80;;;7.50;99.90;;;;;;5084214;28;20021;-74
2021/01/21 08:12:57;;;;;;;6.13;3.17;;;7.50;99.90;;;;;;5089538;28;20472;-74
2021/01/21 08:15:28;;;;;;;5.40;2.40;;;7.50;99.90;;;;;;5090209;28;20039;-74
2021/01/21 08:17:57;;;;;;;5.00;2.20;;;7.40;99.90;;;;;;5089545;28;20110;-74
2021/01/21 08:20:34;;;;;;;4.82;2.20;;;7.40;99.90;;;;;;5085903;28;20043;-73
2021/01/21 08:23:08;;;;;;;5.40;2.50;;;7.40;99.90;;;;;;5074744;28;20039;-73
2021/01/21 08:25:44;;;;;;;4.00;2.13;;;7.40;99.90;;;;;;5090968;28;20024;-74
2021/01/21 08:28:16;;;;;;;4.97;2.30;;;7.40;99.90;;;;;;5089288;28;20028;-74
2021/01/21 08:30:41;;;;;;;6.03;2.35;;;7.40;99.90;;;;;;5088171;28;20032;-73
2021/01/21 08:33:21;;;;;;;4.25;2.05;;;7.40;99.90;;;;;;5076792;28;20476;-74
2021/01/21 08:36:19;;;;;;;4.47;2.20;;;7.40;99.90;;;;;;5090266;28;20080;-73
2021/01/21 08:38:45;;;;;;;5.35;2.10;;;7.40;99.90;;;;;;5074704;28;20040;-74
2021/01/21 08:41:14;;;;;;;5.43;2.28;;;7.40;99.90;;;;;;5088917;28;20024;-73
2021/01/21 08:43:41;;;;;;;4.45;2.35;;;7.30;99.90;;;;;;5088892;28;20016;-74
2021/01/21 08:46:16;;;;;;;5.88;2.40;;;7.40;99.90;;;;;;5059293;28;20035;-73
2021/01/21 08:48:42;;;;;;;6.32;2.20;;;7.40;99.90;;;;;;5093971;28;20111;-73
2021/01/21 08:52:04;;;;;;;4.78;2.10;;;7.30;99.90;;;;;;5063456;28;20127;-73
2021/01/21 08:54:27;;;;;;;4.80;2.03;;;7.40;99.90;;;;;;5088269;28;20032;-73
2021/01/21 08:57:11;;;;;;;4.75;2.10;;;7.40;99.90;;;;;;5093575;28;20040;-73
2021/01/21 08:59:40;;;;;;;6.03;2.20;;;7.40;99.90;;;;;;5074291;28;20480;-75
2021/01/21 09:02:08;;;;;;;4.82;1.88;;;7.40;99.90;;;;;;5090533;28;20631;-74
2021/01/21 09:04:35;;;;;;;4.75;2.10;;;7.50;99.90;;;;;;5092004;28;20019;-74
2021/01/21 09:07:06;;;;;;;4.82;2.10;;;7.50;99.90;;;;;;5090923;28;20093;-73
2021/01/21 09:09:39;;;;;;;4.57;2.10;;;7.50;99.90;;;;;;5074387;28;20052;-74
2021/01/21 09:12:26;;;;;;;4.45;2.30;;;7.60;99.90;;;;;;5083627;28;20661;-74
2021/01/21 09:15:01;;;;;;;6.30;2.13;;;7.60;99.90;;;;;;5091704;28;20028;-74
2021/01/21 09:17:32;;;;;;;6.47;2.28;;;7.60;99.90;;;;;;5088869;28;20032;-73
2021/01/21 09:20:00;;;;;;;5.18;2.03;;;7.60;99.90;;;;;;5089471;28;20093;-73
2021/01/21 09:22:37;;;;;;;5.45;2.45;;;7.70;99.90;;;;;;5093444;28;20028;-74
2021/01/21 09:25:06;;;;;;;4.68;2.20;;;7.70;99.90;;;;;;5093762;28;20034;-73
2021/01/21 09:27:38;;;;;;;5.10;2.10;;;7.70;99.90;;;;;;5091498;28;20031;-73
2021/01/21 09:30:13;;;;;;;5.13;2.40;;;7.70;99.90;;;;;;5090878;28;20076;-73
2021/01/21 09:32:41;;;;;;;5.65;2.28;;;7.80;99.90;;;;;;5090906;28;20047;-73
2021/01/21 09:35:07;;;;;;;4.55;2.40;;;7.80;99.90;;;;;;5091892;28;20442;-73
2021/01/21 09:37:40;;;;;;;5.75;2.67;;;7.80;99.90;;;;;;5090893;28;20039;-74
2021/01/21 09:40:14;;;;;;;4.82;2.28;;;7.80;99.90;;;;;;5087465;28;20030;-73
2021/01/21 09:42:42;;;;;;;4.50;2.10;;;7.90;99.90;;;;;;5092753;28;20028;-73
2021/01/21 09:45:15;;;;;;;5.55;2.10;;;7.90;99.90;;;;;;5084686;28;20413;-73
2021/01/21 09:47:44;;;;;;;5.65;2.03;;;7.90;99.90;;;;;;5086685;28;20579;-73
2021/01/21 09:50:11;;;;;;;5.10;2.15;;;7.90;99.90;;;;;;5060279;28;20036;-73
2021/01/21 09:52:37;;;;;;;5.80;2.50;;;7.90;99.90;;;;;;5074363;28;20450;-73
2021/01/21 09:55:03;;;;;;;4.47;2.17;;;7.90;99.90;;;;;;5069290;28;20036;-73
2021/01/21 09:57:31;;;;;;;4.93;1.95;;;7.90;99.90;;;;;;5087652;28;20019;-73
2021/01/21 09:59:59;;;;;;;4.55;2.10;;;7.90;99.90;;;;;;5072150;28;20832;-73
2021/01/21 10:02:28;;;;;;;3.10;1.70;;;8.00;99.90;;;;;;5082895;28;20569;-73
2021/01/21 10:04:56;;;;;;;2.97;1.20;;;7.90;99.90;;;;;;5083426;28;20065;-73
2021/01/21 10:07:22;;;;;;;2.22;1.13;;;7.90;99.90;;;;;;5066401;28;20589;-73
2021/01/21 10:09:50;;;;;;;2.00;1.00;;;8.00;99.90;;;;;;5082603;28;20110;-73
2021/01/21 10:12:16;;;;;;;1.17;0.60;;;8.00;99.90;;;;;;5088198;28;20115;-73
2021/01/21 10:14:41;;;;;;;1.30;1.00;;;7.90;99.90;;;;;;5084416;28;20032;-73
2021/01/21 10:17:08;;;;;;;0.95;0.50;;;7.90;99.90;;;;;;5066579;28;20079;-73
2021/01/21 10:19:36;;;;;;;1.58;0.70;;;7.90;99.90;;;;;;5086204;28;20028;-73
2021/01/21 10:22:05;;;;;;;0.40;0.40;;;7.80;99.90;;;;;;5076103;28;20031;-73
2021/01/21 10:24:33;;;;;;;0.40;0.40;;;7.80;99.90;;;;;;5081780;28;20051;-73
2021/01/21 10:26:59;;;;;;;0.80;0.47;;;7.80;99.90;;;;;;5087033;28;20039;-73
2021/01/21 10:29:30;;;;;;;0.70;0.50;;;7.80;99.90;;;;;;5069657;28;20027;-73
2021/01/21 10:31:58;;;;;;;0.38;0.38;;;7.70;99.90;;;;;;5075271;28;20036;-73
2021/01/21 10:34:29;;;;;;;1.25;0.40;;;7.70;99.90;;;;;;5084061;28;20106;-74
2021/01/21 10:36:54;;;;;;;0.45;0.43;;;7.70;99.90;;;;;;5071137;28;20031;-72
2021/01/21 10:39:20;;;;;;;0.40;0.40;;;7.60;99.90;;;;;;5079896;28;20032;-73
2021/01/21 10:41:46;;;;;;;1.40;0.50;;;7.60;99.90;;;;;;5085944;28;20613;-72
2021/01/21 10:44:13;;;;;;;0.50;0.40;;;7.60;99.90;;;;;;5088709;28;20030;-73
2021/01/21 10:46:41;;;;;;;1.52;0.43;;;7.70;99.90;;;;;;5088458;28;20494;-73
2021/01/21 10:49:07;;;;;;;0.30;0.30;;;7.70;99.90;;;;;;5086995;28;20035;-73
2021/01/21 10:51:33;;;;;;;0.95;0.47;;;7.70;99.90;;;;;;5088344;28;20025;-73
2021/01/21 10:53:58;;;;;;;0.60;0.55;;;7.80;99.90;;;;;;5087088;28;20098;-74
2021/01/21 10:56:26;;;;;;;0.60;0.40;;;7.70;99.90;;;;;;5070489;28;20024;-73
2021/01/21 10:58:52;;;;;;;0.47;0.45;;;7.70;99.90;;;;;;5084913;28;20536;-73
2021/01/21 11:01:22;;;;;;;0.55;0.55;;;7.70;99.90;;;;;;5085200;28;20115;-72
2021/01/21 11:03:50;;;;;;;0.70;0.50;;;7.70;99.90;;;;;;5089945;28;20040;-73
2021/01/21 11:06:18;;;;;;;1.08;0.55;;;7.80;99.90;;;;;;5085221;28;20571;-73
2021/01/21 11:08:44;;;;;;;1.58;0.80;;;7.70;99.90;;;;;;5090722;28;20098;-72
2021/01/21 11:11:09;;;;;;;1.75;0.40;;;7.80;99.90;;;;;;5083644;28;20024;-72
2021/01/21 11:13:38;;;;;;;0.95;0.40;;;7.80;99.90;;;;;;5086000;28;20170;-72
2021/01/21 11:16:06;;;;;;;0.80;0.50;;;7.80;99.90;;;;;;5058004;28;20024;-72
2021/01/21 11:18:34;;;;;;;1.77;0.70;;;7.80;99.90;;;;;;5075094;28;20630;-73
2021/01/21 11:21:00;;;;;;;0.90;0.50;;;7.80;99.90;;;;;;5086777;28;20093;-72
2021/01/21 11:23:26;;;;;;;1.02;0.57;;;7.90;99.90;;;;;;5052538;28;20482;-72
2021/01/21 11:25:52;;;;;;;1.65;0.50;;;7.90;99.90;;;;;;5103928;28;20102;-72
2021/01/21 11:28:20;;;;;;;1.90;0.60;;;7.90;99.90;;;;;;5084424;28;20031;-72
2021/01/21 11:30:48;;;;;;;0.40;0.40;;;7.90;99.90;;;;;;5088121;28;20108;-72
2021/01/21 11:33:18;;;;;;;1.35;0.75;;;7.80;99.90;;;;;;5086657;28;20097;-72
2021/01/21 11:35:45;;;;;;;1.33;0.70;;;7.90;99.90;;;;;;5084689;28;20095;-72
2021/01/21 11:38:14;;;;;;;2.13;0.73;;;7.80;99.90;;;;;;5089761;28;20537;-72
2021/01/21 11:40:40;;;;;;;1.55;0.70;;;7.80;99.90;;;;;;5086597;28;20040;-72
2021/01/21 11:43:07;;;;;;;1.50;0.68;;;7.80;99.90;;;;;;5084996;28;20028;-73
2021/01/21 11:45:32;;;;;;;2.28;0.80;;;7.80;99.90;;;;;;5086537;28;20039;-72
2021/01/21 11:48:01;;;;;;;1.50;0.73;;;7.80;99.90;;;;;;5077277;28;20338;-72
2021/01/21 11:50:29;;;;;;;1.48;0.75;;;7.90;99.90;;;;;;4736657;28;10000534;-72
2021/01/21 11:52:55;;;;;;;1.13;0.60;;;7.90;99.90;;;;;;5087471;28;20420;-72
2021/01/21 11:55:25;;;;;;;2.05;0.80;;;7.90;99.90;;;;;;5085756;28;20028;-72
2021/01/21 11:57:53;;;;;;;1.35;0.60;;;7.90;99.90;;;;;;5085427;28;20043;-73
2021/01/21 12:00:22;;;;;;;0.85;0.60;;;8.00;99.90;;;;;;5091569;28;20039;-73
2021/01/21 12:02:48;;;;;;;1.90;0.80;;;7.90;99.90;;;;;;5076779;28;20032;-72
2021/01/21 12:05:13;;;;;;;1.23;0.70;;;7.90;99.90;;;;;;5081918;28;20504;-73
2021/01/21 12:07:41;;;;;;;2.50;0.77;;;8.00;99.90;;;;;;5079903;28;20028;-72
2021/01/21 12:10:16;;;;;;;1.65;0.60;;;8.00;99.90;;;;;;5080990;28;20036;-73
2021/01/21 12:12:44;;;;;;;1.40;0.70;;;8.00;99.90;;;;;;5083299;28;20078;-75
2021/01/21 12:15:10;;;;;;;2.53;1.00;;;8.00;99.90;;;;;;5089019;28;20530;-73
2021/01/21 12:17:37;;;;;;;1.92;0.88;;;7.90;99.90;;;;;;4731992;28;10000504;-73
2021/01/21 12:20:06;;;;;;;1.45;0.70;;;7.90;99.90;;;;;;5081754;28;20031;-73
2021/01/21 12:22:33;;;;;;;1.55;0.80;;;7.90;99.90;;;;;;5082892;28;20130;-73
2021/01/21 12:25:04;;;;;;;1.83;0.90;;;8.00;99.90;;;;;;5083352;28;20028;-73
2021/01/21 12:27:32;;;;;;;1.63;0.85;;;7.90;99.90;;;;;;5080436;28;20036;-73
2021/01/21 12:29:58;;;;;;;2.17;0.75;;;7.90;99.90;;;;;;5087475;28;20596;-73
2021/01/21 12:32:24;;;;;;;3.60;1.30;;;7.90;99.90;;;;;;5080136;28;20044;-70
2021/01/21 12:34:52;;;;;;;2.22;1.00;;;7.80;99.90;;;;;;5082568;28;20110;-73
2021/01/21 12:37:20;;;;;;;1.77;0.82;;;7.80;99.90;;;;;;5084380;28;20082;-73
2021/01/21 12:39:46;;;;;;;2.75;1.08;;;7.90;99.90;;;;;;5086220;28;20035;-73
2021/01/21 12:42:12;;;;;;;2.28;0.75;;;7.90;99.90;;;;;;5086344;28;20032;-73
2021/01/21 12:44:41;;;;;;;2.90;0.85;;;7.80;99.90;;;;;;5087373;28;20104;-73
2021/01/21 12:47:09;;;;;;;1.95;0.73;;;7.80;99.90;;;;;;5085638;28;20056;-73
2021/01/21 12:49:35;;;;;;;3.60;0.98;;;7.80;99.90;;;;;;5088575;28;20028;-73
2021/01/21 12:52:04;;;;;;;1.27;0.70;;;7.80;99.90;;;;;;5087383;28;20557;-73
2021/01/21 12:54:29;;;;;;;2.47;0.93;;;7.70;99.90;;;;;;5075970;28;20023;-73
2021/01/21 12:56:59;;;;;;;3.13;0.93;;;7.80;99.90;;;;;;5085798;28;20016;-74
2021/01/21 12:59:27;;;;;;;1.40;0.80;;;7.80;99.90;;;;;;5092056;28;20024;-73
2021/01/21 13:01:55;;;;;;;2.90;0.70;;;7.70;99.90;;;;;;5090831;28;20748;-74
2021/01/21 13:04:25;;;;;;;2.90;1.02;;;7.70;99.90;;;;;;5090060;28;20046;-74
2021/01/21 13:06:53;;;;;;;3.13;1.00;;;7.70;99.90;;;;;;5089727;28;20080;-73
2021/01/21 13:09:21;;;;;;;3.08;1.02;;;7.70;99.90;;;;;;5090519;28;20034;-73